Time;durP1;ratioP1;P1;durP2;ratioP2;P2;SDS_P1;SDS_P2;PMS_P1;PMS_P2;Temp;Humidity;BMP_temperature;BMP_pressure;BME280_temperature;BME280_humidity;BME280_pressure;Samples;Min_cycle;Max_cycle;Signal;HPM_P1;HPM_P2
2021/12/30 00:01:44;;;;;;;141.17;56.33;;;0.00;99.90;;;;;;10511684;28;20199;-83
2021/12/30 00:07:09;;;;;;;136.47;51.60;;;0.10;99.90;;;;;;10511538;28;20299;-81
2021/12/30 00:12:31;;;;;;;149.33;53.77;;;0.10;99.90;;;;;;10525042;28;20216;-83
2021/12/30 00:17:54;;;;;;;150.63;55.77;;;0.20;99.90;;;;;;10511137;28;20239;-80
2021/12/30 00:23:16;;;;;;;143.10;54.50;;;0.10;99.90;;;;;;10525933;28;20236;-82
2021/12/30 00:28:38;;;;;;;162.40;56.23;;;0.10;99.90;;;;;;10524741;28;20457;-84
2021/12/30 00:34:00;;;;;;;146.87;57.23;;;0.20;99.90;;;;;;10541029;28;20191;-85
2021/12/30 00:39:22;;;;;;;147.57;56.90;;;0.20;99.90;;;;;;10510005;28;20222;-83
2021/12/30 00:44:44;;;;;;;158.20;55.50;;;0.20;99.90;;;;;;10472215;28;20486;-82
2021/12/30 00:50:06;;;;;;;142.70;52.67;;;0.20;99.90;;;;;;10468099;28;20538;-84
2021/12/30 00:55:28;;;;;;;137.03;52.93;;;0.30;99.90;;;;;;10482619;28;20489;-85
2021/12/30 01:00:52;;;;;;;136.83;51.90;;;0.20;99.90;;;;;;10468189;28;20437;-82
2021/12/30 01:06:14;;;;;;;142.87;56.47;;;0.30;99.90;;;;;;10467811;28;20215;-82
2021/12/30 01:11:36;;;;;;;148.33;54.50;;;0.20;99.90;;;;;;10494667;28;20194;-82
2021/12/30 01:17:12;;;;;;;149.13;53.47;;;0.20;99.90;;;;;;10498201;28;20302;-79
2021/12/30 01:22:34;;;;;;;143.67;50.73;;;0.20;99.90;;;;;;10497597;28;20416;-85
2021/12/30 01:27:56;;;;;;;137.40;51.53;;;0.20;99.90;;;;;;10497736;28;20204;-84
2021/12/30 01:33:18;;;;;;;146.70;52.33;;;0.30;99.90;;;;;;10466457;28;20205;-84
2021/12/30 01:38:41;;;;;;;157.07;54.50;;;0.40;99.90;;;;;;10453139;28;20227;-85
2021/12/30 01:44:03;;;;;;;162.03;56.53;;;0.30;99.90;;;;;;10467149;28;20194;-83
2021/12/30 01:49:26;;;;;;;332.60;131.40;;;0.30;99.90;;;;;;10479867;28;20220;-84
2021/12/30 01:54:48;;;;;;;372.60;153.00;;;0.30;99.90;;;;;;10479411;28;20268;-84
2021/12/30 02:00:14;;;;;;;266.63;108.87;;;0.40;99.90;;;;;;10465740;28;20228;-83
2021/12/30 02:05:39;;;;;;;207.33;79.87;;;0.40;99.90;;;;;;10465319;28;20553;-81
2021/12/30 02:11:01;;;;;;;165.73;64.73;;;0.40;99.90;;;;;;10487385;28;20203;-81
2021/12/30 02:16:23;;;;;;;148.03;59.23;;;0.40;99.90;;;;;;10520713;28;20214;-81
2021/12/30 02:21:45;;;;;;;164.77;64.10;;;0.40;99.90;;;;;;10474031;28;20196;-83
2021/12/30 02:27:07;;;;;;;145.30;55.67;;;0.40;99.90;;;;;;10478647;28;20202;-81
2021/12/30 02:32:29;;;;;;;141.93;56.60;;;0.40;99.90;;;;;;10464148;28;20207;-85
2021/12/30 02:37:51;;;;;;;143.83;55.87;;;0.40;99.90;;;;;;10464449;28;20254;-81
2021/12/30 02:43:25;;;;;;;165.33;65.93;;;0.40;99.90;;;;;;10513573;28;20247;-82
2021/12/30 02:48:47;;;;;;;168.27;66.90;;;0.50;99.90;;;;;;10519146;28;20247;-84
2021/12/30 02:54:12;;;;;;;151.50;60.03;;;0.50;99.90;;;;;;10519666;28;20254;-81
2021/12/30 02:59:36;;;;;;;145.90;57.70;;;0.50;99.90;;;;;;10504739;28;20231;-86
2021/12/30 03:04:58;;;;;;;137.80;57.80;;;0.50;99.90;;;;;;10504761;28;20203;-80
2021/12/30 03:10:23;;;;;;;142.57;57.47;;;0.50;99.90;;;;;;10535185;28;20559;-80
2021/12/30 03:15:46;;;;;;;148.53;57.10;;;0.50;99.90;;;;;;10470221;28;20206;-81
2021/12/30 03:21:10;;;;;;;139.33;55.30;;;0.50;99.90;;;;;;10477509;28;20519;-81
2021/12/30 03:26:33;;;;;;;134.27;54.00;;;0.50;99.90;;;;;;10463283;28;20275;-85
2021/12/30 03:31:54;;;;;;;141.80;57.27;;;0.60;99.90;;;;;;10479541;28;20199;-82
2021/12/30 03:37:18;;;;;;;140.40;57.10;;;0.50;99.90;;;;;;10459062;28;20306;-82
2021/12/30 03:42:40;;;;;;;135.80;55.23;;;0.60;99.90;;;;;;10496535;28;20206;-83
2021/12/30 03:48:03;;;;;;;134.97;54.20;;;0.50;99.90;;;;;;10504389;28;20424;-84
2021/12/30 03:53:25;;;;;;;138.43;54.50;;;0.50;99.90;;;;;;10518378;28;20218;-81
2021/12/30 03:58:47;;;;;;;135.73;53.60;;;0.60;99.90;;;;;;10518135;28;20236;-81
2021/12/30 04:04:09;;;;;;;135.37;54.77;;;0.60;99.90;;;;;;10534756;28;20226;-83
2021/12/30 04:09:31;;;;;;;140.97;56.17;;;0.60;99.90;;;;;;10504901;28;20227;-83
2021/12/30 04:14:53;;;;;;;137.33;57.80;;;0.60;99.90;;;;;;10525227;28;20256;-78
2021/12/30 04:20:16;;;;;;;131.57;53.00;;;0.60;99.90;;;;;;10482246;28;20527;-79
2021/12/30 04:25:39;;;;;;;124.10;54.07;;;0.60;99.90;;;;;;10483429;28;20197;-80
2021/12/30 04:31:01;;;;;;;130.97;53.37;;;0.60;99.90;;;;;;10468968;28;20199;-81
2021/12/30 04:36:23;;;;;;;134.93;53.50;;;0.70;99.90;;;;;;10482674;28;20203;-79
2021/12/30 04:41:46;;;;;;;144.23;56.10;;;0.70;99.90;;;;;;10510624;28;20551;-81
2021/12/30 04:47:08;;;;;;;131.23;52.80;;;0.70;99.90;;;;;;10510277;28;20497;-80
2021/12/30 04:52:29;;;;;;;123.80;53.23;;;0.70;99.90;;;;;;10509686;28;20383;-79
2021/12/30 04:57:51;;;;;;;123.73;51.33;;;0.60;99.90;;;;;;10509790;28;20412;-87
2021/12/30 05:03:15;;;;;;;138.93;54.47;;;0.70;99.90;;;;;;10510079;28;20198;-87
2021/12/30 05:08:37;;;;;;;134.67;54.23;;;0.60;99.90;;;;;;10523794;28;20207;-87
2021/12/30 05:13:58;;;;;;;135.33;55.50;;;0.60;99.90;;;;;;10509584;28;20200;-87
2021/12/30 05:19:20;;;;;;;128.03;53.30;;;0.60;99.90;;;;;;10537607;28;20241;-87
2021/12/30 05:24:42;;;;;;;145.50;59.97;;;0.70;99.90;;;;;;10507983;28;20199;-86
2021/12/30 05:30:07;;;;;;;146.07;58.30;;;0.70;99.90;;;;;;10495060;28;20199;-87
2021/12/30 05:35:29;;;;;;;180.13;74.27;;;0.70;99.90;;;;;;10523063;28;20191;-81
2021/12/30 05:40:51;;;;;;;215.77;86.53;;;0.80;99.90;;;;;;10493342;28;20229;-90
2021/12/30 05:46:13;;;;;;;159.13;64.73;;;0.80;99.90;;;;;;10522724;28;20191;-88
2021/12/30 05:51:34;;;;;;;143.00;58.93;;;0.80;99.90;;;;;;10507952;28;20430;-88
2021/12/30 05:56:56;;;;;;;142.87;57.17;;;0.80;99.90;;;;;;10507492;28;20221;-88
2021/12/30 06:02:18;;;;;;;132.50;54.07;;;0.80;99.90;;;;;;10508041;28;20226;-89
2021/12/30 06:07:40;;;;;;;121.37;51.10;;;0.80;99.90;;;;;;10521495;28;20496;-88
2021/12/30 06:13:02;;;;;;;125.20;51.87;;;0.90;99.90;;;;;;10465164;28;20211;-85
2021/12/30 06:18:25;;;;;;;129.03;59.20;;;0.90;99.90;;;;;;10465382;28;20223;-83
2021/12/30 06:23:47;;;;;;;123.07;54.13;;;1.00;99.90;;;;;;10464823;28;20188;-84
2021/12/30 06:29:09;;;;;;;114.93;51.20;;;1.00;99.90;;;;;;10478836;28;20242;-83
2021/12/30 06:34:32;;;;;;;117.23;52.63;;;1.00;99.90;;;;;;10463654;28;20228;-80
2021/12/30 06:39:53;;;;;;;112.70;53.30;;;1.10;99.90;;;;;;10480743;28;20223;-79
2021/12/30 06:45:15;;;;;;;121.03;53.67;;;1.10;99.90;;;;;;10519995;28;20244;-86
2021/12/30 06:50:37;;;;;;;125.73;55.47;;;1.20;99.90;;;;;;10536246;28;20233;-84
2021/12/30 06:55:59;;;;;;;119.50;56.53;;;1.20;99.90;;;;;;10505051;28;20221;-80
2021/12/30 07:01:22;;;;;;;125.80;59.90;;;1.20;99.90;;;;;;10505197;28;20230;-81
2021/12/30 07:06:44;;;;;;;124.10;56.57;;;;;;;;;;10518950;28;20191;-82
2021/12/30 07:12:07;;;;;;;129.83;58.90;;;1.40;99.90;;;;;;10519700;28;20202;-84
2021/12/30 07:17:31;;;;;;;117.07;55.07;;;1.40;99.90;;;;;;10536047;28;20383;-79
2021/12/30 07:22:54;;;;;;;106.30;50.00;;;1.40;99.90;;;;;;10519104;28;20205;-82
2021/12/30 07:28:16;;;;;;;121.57;53.30;;;1.40;99.90;;;;;;10504750;28;20200;-83
2021/12/30 07:33:38;;;;;;;113.30;53.37;;;1.50;99.90;;;;;;10504417;28;20216;-86
2021/12/30 07:39:01;;;;;;;142.40;67.97;;;1.40;99.90;;;;;;10534684;28;20238;-86
2021/12/30 07:44:23;;;;;;;137.67;62.50;;;1.40;99.90;;;;;;10505792;28;20245;-85
2021/12/30 07:49:48;;;;;;;148.17;68.10;;;1.40;99.90;;;;;;10512071;28;20246;-84
2021/12/30 07:55:13;;;;;;;133.47;63.27;;;1.50;99.90;;;;;;10512143;28;20201;-79
2021/12/30 08:00:35;;;;;;;117.80;56.90;;;1.50;99.90;;;;;;10527028;28;20246;-86
2021/12/30 08:05:58;;;;;;;109.97;53.73;;;1.50;99.90;;;;;;10526359;28;20195;-88
2021/12/30 08:11:21;;;;;;;122.00;58.93;;;1.40;99.90;;;;;;10485394;28;20239;-87
2021/12/30 08:16:43;;;;;;;122.50;58.13;;;1.50;99.90;;;;;;10471102;28;20200;-88
2021/12/30 08:22:07;;;;;;;113.67;54.03;;;1.40;99.90;;;;;;10492469;28;20200;-88
2021/12/30 08:27:29;;;;;;;117.90;55.43;;;1.40;99.90;;;;;;10493342;28;20484;-86
2021/12/30 08:32:51;;;;;;;128.37;59.83;;;1.50;99.90;;;;;;10479700;28;20227;-84
2021/12/30 08:38:14;;;;;;;117.33;56.73;;;1.50;99.90;;;;;;10489169;28;20239;-90
2021/12/30 08:43:36;;;;;;;115.30;54.53;;;;;;;;;;10495105;28;20207;-82
2021/12/30 08:48:59;;;;;;;108.97;57.47;;;1.70;99.90;;;;;;10535044;28;20227;-83
2021/12/30 08:54:22;;;;;;;112.33;55.47;;;1.70;99.90;;;;;;10504985;28;20443;-84
2021/12/30 08:59:44;;;;;;;116.60;57.73;;;1.80;99.90;;;;;;10490159;28;20276;-82
2021/12/30 09:05:09;;;;;;;94.30;47.83;;;1.90;99.90;;;;;;10504302;28;20201;-83
2021/12/30 09:10:35;;;;;;;94.80;44.47;;;1.90;99.90;;;;;;10515171;28;20211;-84
2021/12/30 09:15:57;;;;;;;92.97;46.67;;;1.90;99.90;;;;;;10504452;28;20211;-84
2021/12/30 09:21:21;;;;;;;82.93;43.60;;;2.00;99.90;;;;;;10491729;28;20232;-84
2021/12/30 09:26:43;;;;;;;92.20;46.47;;;;;;;;;;10516762;28;20222;-81
2021/12/30 09:32:06;;;;;;;92.23;48.43;;;2.10;99.90;;;;;;10461534;28;20216;-83
2021/12/30 09:37:28;;;;;;;87.67;45.00;;;2.30;99.90;;;;;;10477587;28;20592;-81
2021/12/30 09:43:01;;;;;;;78.37;42.93;;;2.40;99.90;;;;;;10475780;28;20207;-87
2021/12/30 09:48:23;;;;;;;89.00;46.40;;;2.40;99.90;;;;;;10447134;28;20649;-87
2021/12/30 09:53:50;;;;;;;115.40;62.27;;;2.50;99.90;;;;;;10489041;28;20192;-82
2021/12/30 09:59:13;;;;;;;101.23;54.47;;;2.50;99.90;;;;;;10517085;28;20223;-84
2021/12/30 10:04:36;;;;;;;90.10;48.27;;;2.40;99.90;;;;;;10516405;28;20195;-84
2021/12/30 10:10:02;;;;;;;96.23;48.80;;;2.50;99.90;;;;;;10486700;28;20408;-84
2021/12/30 10:15:28;;;;;;;111.50;57.63;;;2.50;99.90;;;;;;10514796;28;20200;-82
2021/12/30 10:20:52;;;;;;;128.37;65.53;;;2.50;99.90;;;;;;10501939;28;20226;-82
2021/12/30 10:26:15;;;;;;;132.07;69.63;;;2.50;99.90;;;;;;10515170;28;20199;-82
2021/12/30 10:31:40;;;;;;;102.07;50.33;;;2.50;99.90;;;;;;10512441;28;20505;-83
2021/12/30 10:37:02;;;;;;;89.27;42.63;;;2.60;99.90;;;;;;10487200;28;20204;-83
2021/12/30 10:42:30;;;;;;;91.70;42.83;;;2.70;99.90;;;;;;10502502;28;20209;-86
2021/12/30 10:47:54;;;;;;;97.70;49.00;;;2.70;99.90;;;;;;10514670;28;20253;-87
2021/12/30 10:53:27;;;;;;;81.43;40.70;;;2.80;99.90;;;;;;10487106;28;20541;-86
2021/12/30 10:58:50;;;;;;;75.67;40.50;;;3.00;99.90;;;;;;10474211;28;20220;-86
2021/12/30 11:04:14;;;;;;;66.07;38.07;;;3.00;99.90;;;;;;10466821;28;20497;-82
2021/12/30 11:09:49;;;;;;;63.07;38.90;;;3.10;99.90;;;;;;10500517;28;20224;-87
2021/12/30 11:15:25;;;;;;;52.93;26.63;;;3.10;99.90;;;;;;10485613;28;20443;-83
2021/12/30 11:20:48;;;;;;;59.90;28.37;;;3.10;99.90;;;;;;10449182;28;20223;-85
2021/12/30 11:26:10;;;;;;;50.07;24.13;;;3.20;99.90;;;;;;10475141;28;20202;-80
2021/12/30 11:31:33;;;;;;;40.97;23.03;;;3.20;99.90;;;;;;10506668;28;20223;-86
2021/12/30 11:36:56;;;;;;;34.60;19.43;;;3.20;99.90;;;;;;10522751;28;20206;-89
2021/12/30 11:42:30;;;;;;;45.97;25.63;;;3.20;99.90;;;;;;10520778;28;20237;-82
2021/12/30 11:47:53;;;;;;;45.30;23.80;;;3.20;99.90;;;;;;10507004;28;20254;-78
2021/12/30 11:53:28;;;;;;;47.93;25.33;;;3.20;99.90;;;;;;10521739;28;20217;-82
2021/12/30 11:58:55;;;;;;;48.53;25.23;;;3.20;99.90;;;;;;10491373;28;20236;-86
2021/12/30 12:04:26;;;;;;;40.70;20.67;;;3.40;99.90;;;;;;10466715;28;20268;-87
2021/12/30 12:09:48;;;;;;;31.77;16.67;;;3.40;99.90;;;;;;10477207;28;20514;-80
2021/12/30 12:15:14;;;;;;;30.43;17.37;;;3.30;99.90;;;;;;10505937;28;20208;-83
2021/12/30 12:20:52;;;;;;;33.23;17.33;;;3.30;99.90;;;;;;10506455;28;20264;-90
2021/12/30 12:26:20;;;;;;;36.67;19.30;;;3.30;99.90;;;;;;10486134;28;20205;-85
2021/12/30 12:31:54;;;;;;;58.97;32.40;;;3.30;99.90;;;;;;10475205;28;20220;-87
2021/12/30 12:37:32;;;;;;;54.80;29.33;;;3.30;99.90;;;;;;10504705;28;20274;-90
2021/12/30 12:42:56;;;;;;;58.50;31.20;;;3.30;99.90;;;;;;10476519;28;20455;-84
2021/12/30 12:48:20;;;;;;;69.07;33.10;;;3.30;99.90;;;;;;10461829;28;20497;-90
2021/12/30 12:53:45;;;;;;;59.63;30.37;;;3.30;99.90;;;;;;10462361;28;20292;-85
2021/12/30 12:59:13;;;;;;;52.93;27.17;;;3.30;99.90;;;;;;10476040;28;20220;-80
2021/12/30 13:04:37;;;;;;;43.53;23.33;;;3.30;99.90;;;;;;10503218;28;20265;-86
2021/12/30 13:09:58;;;;;;;31.73;18.27;;;3.30;99.90;;;;;;10506936;28;20278;-84
2021/12/30 13:15:21;;;;;;;76.50;39.10;;;3.20;99.90;;;;;;10492939;28;20442;-86
2021/12/30 13:20:45;;;;;;;73.23;41.30;;;3.20;99.90;;;;;;10480177;28;20231;-87
2021/12/30 13:26:09;;;;;;;42.40;25.80;;;3.20;99.90;;;;;;10494151;28;20223;-89
2021/12/30 13:31:33;;;;;;;36.73;19.70;;;3.20;99.90;;;;;;10478799;28;20221;-87
2021/12/30 13:37:12;;;;;;;29.47;18.43;;;3.30;99.90;;;;;;10468022;28;20196;-86
2021/12/30 13:42:34;;;;;;;24.83;15.40;;;3.30;99.90;;;;;;10485330;28;20440;-88
2021/12/30 13:48:17;;;;;;;26.80;15.33;;;3.30;99.90;;;;;;10475926;28;20311;-84
2021/12/30 13:53:41;;;;;;;38.67;19.93;;;3.30;99.90;;;;;;10435831;28;20302;-82
2021/12/30 13:59:07;;;;;;;44.57;22.07;;;3.30;99.90;;;;;;10435098;28;20684;-85
2021/12/30 14:04:39;;;;;;;34.23;18.70;;;3.30;99.90;;;;;;10419827;28;20264;-85
2021/12/30 14:10:02;;;;;;;31.60;17.93;;;3.30;99.90;;;;;;10452588;28;20196;-87
2021/12/30 14:15:25;;;;;;;26.80;15.70;;;3.30;99.90;;;;;;10457724;28;20511;-82
2021/12/30 14:20:47;;;;;;;36.10;19.80;;;3.30;99.90;;;;;;10460803;28;20238;-83
2021/12/30 14:26:17;;;;;;;36.30;18.80;;;3.40;99.90;;;;;;10460304;28;20195;-83
2021/12/30 14:31:46;;;;;;;38.87;20.37;;;3.40;99.90;;;;;;10458960;28;20221;-83
2021/12/30 14:37:08;;;;;;;37.63;20.77;;;3.40;99.90;;;;;;10451117;28;20242;-85
2021/12/30 14:42:31;;;;;;;29.97;17.20;;;3.40;99.90;;;;;;10451702;28;20239;-79
2021/12/30 14:48:00;;;;;;;44.40;21.33;;;3.40;99.90;;;;;;10458965;28;20256;-78
2021/12/30 14:53:26;;;;;;;53.73;25.77;;;3.40;99.90;;;;;;10422517;28;20546;-80
2021/12/30 14:58:48;;;;;;;34.97;20.13;;;3.40;99.90;;;;;;10430398;28;20268;-84
2021/12/30 15:04:10;;;;;;;28.53;17.83;;;3.40;99.90;;;;;;10458620;28;20393;-81
2021/12/30 15:09:33;;;;;;;42.07;22.73;;;3.40;99.90;;;;;;10439088;28;20189;-79
2021/12/30 15:14:56;;;;;;;94.60;52.17;;;3.40;99.90;;;;;;10453550;28;20216;-78
2021/12/30 15:20:19;;;;;;;47.07;28.43;;;3.50;99.90;;;;;;10470173;28;20229;-79
2021/12/30 15:25:41;;;;;;;50.27;24.53;;;3.50;99.90;;;;;;10440826;28;20255;-79
2021/12/30 15:31:03;;;;;;;42.73;23.30;;;3.50;99.90;;;;;;10436985;28;20204;-87
2021/12/30 15:36:25;;;;;;;38.83;22.10;;;3.50;99.90;;;;;;10455893;28;20201;-84
2021/12/30 15:41:49;;;;;;;35.70;19.53;;;3.40;99.90;;;;;;10454764;28;20249;-81
2021/12/30 15:47:11;;;;;;;34.37;19.70;;;3.50;99.90;;;;;;10455357;28;20373;-82
2021/12/30 15:52:33;;;;;;;29.60;17.87;;;3.60;99.90;;;;;;10457271;28;20202;-81
2021/12/30 15:57:57;;;;;;;47.57;27.73;;;3.60;99.90;;;;;;10457860;28;20209;-85
2021/12/30 16:03:20;;;;;;;33.73;21.60;;;3.60;99.90;;;;;;10451638;28;20230;-87
2021/12/30 16:08:43;;;;;;;39.33;20.83;;;3.60;99.90;;;;;;10455592;28;20419;-84
2021/12/30 16:14:05;;;;;;;36.83;19.50;;;3.70;99.90;;;;;;10483512;28;20207;-79
2021/12/30 16:19:28;;;;;;;28.80;16.80;;;3.70;99.90;;;;;;10467810;28;20271;-81
2021/12/30 16:24:49;;;;;;;32.23;16.67;;;3.70;99.90;;;;;;10469442;28;20240;-79
2021/12/30 16:30:15;;;;;;;33.93;18.30;;;3.70;99.90;;;;;;10465772;28;20201;-80
2021/12/30 16:35:37;;;;;;;35.27;17.80;;;3.70;99.90;;;;;;10424139;28;20273;-81
2021/12/30 16:40:59;;;;;;;48.73;21.10;;;3.70;99.90;;;;;;10423949;28;20230;-80
2021/12/30 16:46:22;;;;;;;39.57;20.73;;;3.70;99.90;;;;;;10427190;28;20200;-81
2021/12/30 16:51:44;;;;;;;48.23;21.27;;;3.70;99.90;;;;;;10427074;28;20293;-82
2021/12/30 16:57:06;;;;;;;41.13;20.43;;;3.70;99.90;;;;;;10441169;28;20193;-81
2021/12/30 17:02:28;;;;;;;42.20;23.20;;;3.80;99.90;;;;;;10432773;28;20435;-81
2021/12/30 17:07:52;;;;;;;44.67;24.63;;;3.80;99.90;;;;;;10481740;28;20227;-81
2021/12/30 17:13:13;;;;;;;43.17;22.07;;;3.80;99.90;;;;;;10467486;28;20244;-81
2021/12/30 17:18:38;;;;;;;46.37;23.50;;;3.80;99.90;;;;;;10480714;28;20224;-80
2021/12/30 17:24:01;;;;;;;37.87;19.47;;;4.00;99.90;;;;;;10467105;28;20367;-80
2021/12/30 17:29:22;;;;;;;23.43;14.83;;;4.00;99.90;;;;;;10467003;28;20209;-80
2021/12/30 17:34:45;;;;;;;24.83;16.27;;;4.00;99.90;;;;;;10480733;28;20284;-80
2021/12/30 17:40:10;;;;;;;29.10;16.80;;;3.90;99.90;;;;;;10466593;28;20227;-80
2021/12/30 17:45:33;;;;;;;22.57;14.13;;;3.90;99.90;;;;;;10466159;28;20488;-80
2021/12/30 17:50:56;;;;;;;18.50;12.80;;;3.80;99.90;;;;;;10480228;28;20240;-80
2021/12/30 17:56:19;;;;;;;23.07;14.20;;;3.80;99.90;;;;;;10479854;28;20279;-81
2021/12/30 18:01:41;;;;;;;34.63;18.77;;;3.80;99.90;;;;;;10465265;28;20225;-81
2021/12/30 18:07:04;;;;;;;33.77;17.87;;;3.90;99.90;;;;;;10465827;28;20190;-80
2021/12/30 18:12:29;;;;;;;29.70;17.77;;;3.90;99.90;;;;;;10437678;28;20202;-81
2021/12/30 18:17:52;;;;;;;28.60;16.93;;;3.80;99.90;;;;;;10479076;28;20248;-80
2021/12/30 18:23:13;;;;;;;56.57;27.97;;;3.90;99.90;;;;;;10464848;28;20249;-82
2021/12/30 18:28:35;;;;;;;42.27;22.63;;;4.00;99.90;;;;;;10464573;28;20212;-81
2021/12/30 18:33:57;;;;;;;43.33;23.17;;;4.00;99.90;;;;;;10434098;28;20205;-82
2021/12/30 18:39:21;;;;;;;39.43;23.37;;;4.00;99.90;;;;;;10453191;28;20237;-83
2021/12/30 18:44:43;;;;;;;50.63;26.30;;;4.00;99.90;;;;;;10478426;28;20205;-81
2021/12/30 18:50:11;;;;;;;39.20;23.33;;;4.10;99.90;;;;;;10463865;28;20299;-83
2021/12/30 18:55:33;;;;;;;43.93;23.43;;;4.00;99.90;;;;;;10463997;28;20553;-82
2021/12/30 19:00:56;;;;;;;68.33;34.23;;;4.00;99.90;;;;;;10463440;28;20275;-85
2021/12/30 19:06:19;;;;;;;62.33;32.40;;;4.10;99.90;;;;;;10465335;28;20232;-83
2021/12/30 19:11:41;;;;;;;59.00;28.50;;;4.20;99.90;;;;;;10425254;28;20284;-82
2021/12/30 19:17:04;;;;;;;57.03;28.70;;;4.20;99.90;;;;;;10463488;28;20194;-83
2021/12/30 19:22:26;;;;;;;41.73;21.97;;;4.20;99.90;;;;;;10477580;28;20245;-81
2021/12/30 19:27:48;;;;;;;40.87;21.17;;;4.30;99.90;;;;;;10463190;28;20631;-80
2021/12/30 19:33:10;;;;;;;34.67;18.63;;;4.30;99.90;;;;;;10462960;28;20201;-80
2021/12/30 19:38:32;;;;;;;31.67;18.10;;;4.40;99.90;;;;;;10462953;28;20188;-80
2021/12/30 19:43:58;;;;;;;31.93;17.57;;;4.40;99.90;;;;;;10470816;28;20206;-82
2021/12/30 19:49:21;;;;;;;32.17;17.63;;;4.40;99.90;;;;;;10485019;28;20230;-80
2021/12/30 19:54:43;;;;;;;34.93;17.97;;;4.40;99.90;;;;;;10471303;28;20206;-81
2021/12/30 20:00:11;;;;;;;26.63;16.87;;;4.40;99.90;;;;;;10484522;28;20230;-80
2021/12/30 20:05:37;;;;;;;37.27;18.20;;;4.40;99.90;;;;;;10471012;28;20224;-80
2021/12/30 20:11:00;;;;;;;30.20;16.37;;;4.50;99.90;;;;;;10470034;28;20198;-79
2021/12/30 20:16:22;;;;;;;19.27;11.50;;;4.60;99.90;;;;;;10469716;28;20496;-80
2021/12/30 20:21:44;;;;;;;19.73;12.43;;;4.60;99.90;;;;;;10469808;28;20240;-80
2021/12/30 20:27:07;;;;;;;22.67;13.97;;;4.60;99.90;;;;;;10483632;28;20197;-84
2021/12/30 20:32:29;;;;;;;16.97;11.53;;;4.70;99.90;;;;;;10464870;28;20207;-81
2021/12/30 20:37:51;;;;;;;14.20;9.97;;;4.70;99.90;;;;;;10435720;28;20239;-83
2021/12/30 20:43:15;;;;;;;12.17;7.80;;;4.70;99.90;;;;;;10484327;28;20292;-84
2021/12/30 20:48:36;;;;;;;9.43;7.53;;;4.70;99.90;;;;;;10483099;28;20244;-83
2021/12/30 20:54:00;;;;;;;10.17;6.70;;;4.70;99.90;;;;;;10467775;28;20199;-83
2021/12/30 20:59:22;;;;;;;8.93;6.47;;;4.80;99.90;;;;;;10482381;28;20217;-83
2021/12/30 21:04:44;;;;;;;7.83;6.10;;;4.80;99.90;;;;;;10468856;28;20502;-80
2021/12/30 21:10:09;;;;;;;8.40;6.17;;;4.90;99.90;;;;;;10468099;28;20209;-84
2021/12/30 21:15:31;;;;;;;14.33;7.90;;;4.90;99.90;;;;;;10482588;28;20269;-85
2021/12/30 21:20:55;;;;;;;11.13;7.53;;;4.90;99.90;;;;;;10467683;28;20225;-83
2021/12/30 21:26:18;;;;;;;8.23;6.23;;;5.00;99.90;;;;;;10467571;28;20252;-83
2021/12/30 21:31:40;;;;;;;11.57;7.17;;;4.90;99.90;;;;;;10456063;28;20501;-83
2021/12/30 21:37:02;;;;;;;9.83;6.93;;;5.00;99.90;;;;;;10457789;28;20195;-82
2021/12/30 21:42:24;;;;;;;9.87;6.83;;;5.00;99.90;;;;;;10481058;28;20226;-81
2021/12/30 21:47:46;;;;;;;9.57;6.83;;;5.00;99.90;;;;;;10466673;28;20230;-84
2021/12/30 21:53:08;;;;;;;12.20;8.00;;;4.90;99.90;;;;;;10480870;28;20194;-84
2021/12/30 21:58:30;;;;;;;13.07;8.47;;;4.90;99.90;;;;;;10480728;28;20270;-85
2021/12/30 22:03:53;;;;;;;17.37;10.90;;;4.90;99.90;;;;;;10465995;28;20199;-84
2021/12/30 22:09:15;;;;;;;24.70;14.10;;;5.00;99.90;;;;;;10451897;28;20244;-84
2021/12/30 22:14:37;;;;;;;19.13;11.83;;;5.00;99.90;;;;;;10480055;28;20198;-84
2021/12/30 22:19:59;;;;;;;15.03;8.90;;;5.00;99.90;;;;;;10465214;28;20230;-84
2021/12/30 22:25:21;;;;;;;8.60;6.43;;;5.00;99.90;;;;;;10465433;28;20277;-83
2021/12/30 22:30:45;;;;;;;8.63;6.33;;;5.00;99.90;;;;;;10479069;28;20207;-83
2021/12/30 22:36:08;;;;;;;6.67;5.27;;;5.10;99.90;;;;;;10464723;28;20490;-84
2021/12/30 22:41:30;;;;;;;7.80;5.60;;;5.10;99.90;;;;;;10440166;28;20250;-84
2021/12/30 22:46:52;;;;;;;7.53;5.77;;;5.10;99.90;;;;;;10409922;28;20199;-85
2021/12/30 22:52:13;;;;;;;6.37;5.13;;;5.20;99.90;;;;;;10438107;28;20362;-81
2021/12/30 22:57:38;;;;;;;5.77;4.73;;;5.30;99.90;;;;;;10437027;28;20210;-84
2021/12/30 23:03:00;;;;;;;7.00;3.87;;;5.40;99.90;;;;;;10436684;28;20231;-84
2021/12/30 23:08:24;;;;;;;3.30;3.00;;;5.50;99.90;;;;;;10440222;28;20455;-84
2021/12/30 23:13:47;;;;;;;5.17;4.00;;;5.70;99.90;;;;;;10479697;28;20203;-83
2021/12/30 23:19:10;;;;;;;3.30;2.90;;;5.80;99.90;;;;;;10432234;28;20526;-84
2021/12/30 23:24:33;;;;;;;2.17;1.97;;;5.80;99.90;;;;;;10436505;28;20200;-84
2021/12/30 23:29:55;;;;;;;2.30;2.10;;;5.90;99.90;;;;;;10422870;28;20191;-83
2021/12/30 23:35:18;;;;;;;2.30;2.10;;;6.00;99.90;;;;;;10422149;28;20279;-84
2021/12/30 23:40:40;;;;;;;2.47;2.17;;;6.10;99.90;;;;;;10486285;28;20551;-84
2021/12/30 23:46:03;;;;;;;3.73;2.20;;;6.10;99.90;;;;;;10478830;28;20370;-83
2021/12/30 23:51:25;;;;;;;2.70;2.43;;;6.20;99.90;;;;;;10478579;28;20552;-84
2021/12/30 23:56:47;;;;;;;3.77;2.83;;;6.10;99.90;;;;;;10478846;28;20191;-84
